createdAt,value
2022-07-27T00:00:49.046Z,101590.91
2022-07-27T00:03:15.864Z,101589.28
2022-07-27T00:05:42.885Z,101581.44
2022-07-27T00:08:09.702Z,101579.94
2022-07-27T00:10:37.139Z,101578.41
2022-07-27T00:13:06.519Z,101578.41
2022-07-27T00:15:34.646Z,101580.59
2022-07-27T00:18:01.682Z,101582.41
2022-07-27T00:20:29.126Z,101585.59
2022-07-27T00:22:56.498Z,101593.34
2022-07-27T00:25:24.392Z,101604.69
2022-07-27T00:27:51.150Z,101607.56
2022-07-27T00:30:18.127Z,101604.38
2022-07-27T00:32:44.985Z,101605.16
2022-07-27T00:35:12.652Z,101600.16
2022-07-27T00:37:40.266Z,101592.41
2022-07-27T00:40:08.011Z,101602.91
2022-07-27T00:42:35.330Z,101594.50
2022-07-27T00:45:03.535Z,101598.34
2022-07-27T00:47:30.285Z,101596.78
2022-07-27T00:49:58.316Z,101591.00
2022-07-27T00:52:25.727Z,101593.06
2022-07-27T00:54:52.954Z,101588.19
2022-07-27T00:57:19.775Z,101581.53
2022-07-27T00:59:46.723Z,101574.50
2022-07-27T01:02:19.536Z,101567.63
2022-07-27T01:04:47.342Z,101565.19
2022-07-27T01:07:15.560Z,101571.19
2022-07-27T01:09:58.166Z,101570.19
2022-07-27T01:12:30.449Z,101564.13
2022-07-27T01:14:58.401Z,101572.22
2022-07-27T01:17:26.651Z,101563.50
2022-07-27T01:19:54.091Z,101572.13
2022-07-27T01:22:20.824Z,101566.66
2022-07-27T01:24:48.662Z,101572.56
2022-07-27T01:27:15.425Z,101566.13
2022-07-27T01:29:42.179Z,101565.69
2022-07-27T01:32:09.233Z,101562.50
2022-07-27T01:34:36.303Z,101554.31
2022-07-27T01:37:05.085Z,101548.41
2022-07-27T01:39:32.810Z,101541.31
2022-07-27T01:42:01.121Z,101538.56
2022-07-27T01:44:27.988Z,101538.72
2022-07-27T01:46:55.081Z,101527.03
2022-07-27T01:49:22.434Z,101536.97
2022-07-27T01:51:49.417Z,101536.28
2022-07-27T01:54:16.295Z,101543.63
2022-07-27T01:56:43.273Z,101537.72
2022-07-27T01:59:16.188Z,101527.88
2022-07-27T02:01:44.619Z,101526.91
2022-07-27T02:04:11.683Z,101529.97
2022-07-27T02:06:38.443Z,101534.91
2022-07-27T02:09:05.252Z,101535.13
2022-07-27T02:11:50.644Z,101530.22
2022-07-27T02:14:17.437Z,101528.81
2022-07-27T02:16:44.228Z,101529.50
2022-07-27T02:19:12.122Z,101531.75
2022-07-27T02:21:39.217Z,101520.66
2022-07-27T02:24:06.579Z,101524.47
2022-07-27T02:26:33.567Z,101521.94
2022-07-27T02:29:00.395Z,101509.75
2022-07-27T02:31:32.912Z,101513.66
2022-07-27T02:34:00.381Z,101503.75
2022-07-27T02:36:29.325Z,101498.06
2022-07-27T02:38:57.137Z,101495.22
2022-07-27T02:41:24.289Z,101488.91
2022-07-27T02:43:51.162Z,101495.34
2022-07-27T02:46:18.024Z,101494.03
2022-07-27T02:48:44.769Z,101459.59
2022-07-27T02:51:11.647Z,101467.00
2022-07-27T02:53:38.361Z,101455.00
2022-07-27T02:56:05.290Z,101449.22
2022-07-27T02:58:36.271Z,101450.97
2022-07-27T03:01:04.126Z,101457.50
2022-07-27T03:03:36.609Z,101452.16
2022-07-27T03:06:08.229Z,101460.56
2022-07-27T03:08:36.223Z,101446.25
2022-07-27T03:11:03.435Z,101454.63
2022-07-27T03:13:30.562Z,101456.59
2022-07-27T03:15:58.271Z,101457.47
2022-07-27T03:18:25.256Z,101457.34
2022-07-27T03:20:52.054Z,101455.22
2022-07-27T03:23:19.028Z,101462.72
2022-07-27T03:25:45.815Z,101453.03
2022-07-27T03:28:13.077Z,101468.19
2022-07-27T03:30:39.836Z,101454.66
2022-07-27T03:33:06.847Z,101461.75
2022-07-27T03:35:33.787Z,101459.56
2022-07-27T03:38:00.616Z,101462.81
2022-07-27T03:40:29.604Z,101460.78
2022-07-27T03:42:56.593Z,101464.34
2022-07-27T03:45:23.451Z,101458.66
2022-07-27T03:47:50.197Z,101471.88
2022-07-27T03:50:16.946Z,101468.06
2022-07-27T03:52:45.425Z,101473.16
2022-07-27T03:55:12.668Z,101478.47
2022-07-27T03:57:39.868Z,101473.91
2022-07-27T04:00:08.645Z,101474.22
2022-07-27T04:02:35.520Z,101481.19
2022-07-27T04:05:02.328Z,101473.88
2022-07-27T04:07:29.236Z,101479.66
2022-07-27T04:09:56.014Z,101481.38
2022-07-27T04:12:22.821Z,101474.59
2022-07-27T04:14:49.589Z,101475.25
2022-07-27T04:17:56.586Z,101476.75
2022-07-27T04:20:04.216Z,101478.25
2022-07-27T04:22:31.228Z,101478.69
2022-07-27T04:24:58.009Z,101481.81
2022-07-27T04:27:25.386Z,101478.88
2022-07-27T04:29:52.097Z,101484.75
2022-07-27T04:32:19.201Z,101483.19
2022-07-27T04:34:45.986Z,101488.53
2022-07-27T04:37:12.805Z,101488.16
2022-07-27T04:39:39.543Z,101487.56
2022-07-27T04:42:06.668Z,101489.75
2022-07-27T04:44:33.809Z,101490.84
2022-07-27T04:47:00.633Z,101494.28
2022-07-27T04:49:27.441Z,101496.06
2022-07-27T04:51:54.270Z,101493.53
2022-07-27T04:54:21.011Z,101497.03
2022-07-27T04:56:47.888Z,101496.31
2022-07-27T04:59:14.979Z,101499.91
2022-07-27T05:01:41.968Z,101506.97
2022-07-27T05:04:08.880Z,101500.03
2022-07-27T05:06:35.701Z,101514.03
2022-07-27T05:09:03.283Z,101521.72
2022-07-27T05:11:29.984Z,101514.00
2022-07-27T05:13:56.795Z,101515.66
2022-07-27T05:16:28.286Z,101519.22
2022-07-27T05:18:55.466Z,101525.50
2022-07-27T05:21:22.162Z,101531.88
2022-07-27T05:23:48.947Z,101543.59
2022-07-27T05:26:15.738Z,101535.31
2022-07-27T05:28:42.456Z,101537.34
2022-07-27T05:31:09.271Z,101545.63
2022-07-27T05:33:36.032Z,101554.72
2022-07-27T05:36:02.771Z,101560.56
2022-07-27T05:38:39.417Z,101561.38
2022-07-27T05:41:07.802Z,101567.38
2022-07-27T05:43:34.594Z,101565.00
2022-07-27T05:46:01.597Z,101560.66
2022-07-27T05:48:28.461Z,101570.78
2022-07-27T05:50:55.214Z,101573.84
2022-07-27T05:53:21.941Z,101568.03
2022-07-27T05:55:59.055Z,101563.53
2022-07-27T05:58:29.512Z,101564.13
2022-07-27T06:00:56.909Z,101553.44
2022-07-27T06:03:24.910Z,101572.34
2022-07-27T06:05:52.046Z,101573.75
2022-07-27T06:08:18.825Z,101573.25
2022-07-27T06:10:45.600Z,101578.84
2022-07-27T06:13:12.332Z,101586.69
2022-07-27T06:15:40.437Z,101582.56
2022-07-27T06:18:09.102Z,101584.03
2022-07-27T06:20:36.010Z,101584.03
2022-07-27T06:23:08.106Z,101575.34
2022-07-27T06:25:35.971Z,101576.34
2022-07-27T06:28:04.991Z,101582.19
2022-07-27T06:30:32.385Z,101576.09
2022-07-27T06:32:59.813Z,101573.59
2022-07-27T06:35:27.510Z,101576.09
2022-07-27T06:37:54.217Z,101567.25
2022-07-27T06:40:20.969Z,101582.06
2022-07-27T06:42:47.702Z,101582.81
2022-07-27T06:45:15.051Z,101578.31
2022-07-27T06:47:48.952Z,101587.63
2022-07-27T06:50:17.645Z,101585.56
2022-07-27T06:52:44.565Z,101587.91
2022-07-27T06:55:11.384Z,101581.09
2022-07-27T06:57:38.198Z,101579.06
2022-07-27T07:00:06.919Z,101573.88
2022-07-27T07:02:33.696Z,101584.31
2022-07-27T07:05:00.471Z,101576.34
2022-07-27T07:07:27.153Z,101577.34
2022-07-27T07:09:53.852Z,101573.09
2022-07-27T07:12:20.617Z,101580.63
2022-07-27T07:14:47.277Z,101567.88
2022-07-27T07:17:14.072Z,101578.84
2022-07-27T07:19:40.802Z,101581.81
2022-07-27T07:22:07.530Z,101581.41
2022-07-27T07:24:34.299Z,101578.06
2022-07-27T07:27:01.007Z,101589.16
2022-07-27T07:29:27.869Z,101586.41
2022-07-27T07:31:54.829Z,101598.50
2022-07-27T07:34:21.693Z,101586.00
2022-07-27T07:36:48.472Z,101570.88
2022-07-27T07:39:15.515Z,101568.09
2022-07-27T07:41:42.455Z,101568.63
2022-07-27T07:44:10.157Z,101562.19
2022-07-27T07:46:37.113Z,101560.94
2022-07-27T07:49:05.270Z,101567.09
2022-07-27T07:51:32.239Z,101564.25
2022-07-27T07:53:59.450Z,101546.84
2022-07-27T07:56:26.301Z,101537.47
2022-07-27T07:58:53.212Z,101555.66
2022-07-27T08:01:20.296Z,101562.09
2022-07-27T08:03:50.851Z,101566.00
2022-07-27T08:06:19.045Z,101573.13
2022-07-27T08:08:45.757Z,101575.47
2022-07-27T08:11:12.525Z,101559.72
2022-07-27T08:13:39.643Z,101564.47
2022-07-27T08:16:06.720Z,101568.94
2022-07-27T08:18:33.561Z,101571.63
2022-07-27T08:21:00.357Z,101567.94
2022-07-27T08:23:27.110Z,101573.03
2022-07-27T08:25:54.644Z,101575.59
2022-07-27T08:28:21.406Z,101570.38
2022-07-27T08:30:49.336Z,101531.75
2022-07-27T08:33:16.679Z,101549.75
2022-07-27T08:35:45.047Z,101558.88
2022-07-27T08:38:12.434Z,101506.25
2022-07-27T08:40:43.316Z,101536.13
2022-07-27T08:43:13.014Z,101564.94
2022-07-27T08:45:41.675Z,101577.63
2022-07-27T08:48:13.674Z,101570.38
2022-07-27T08:50:42.795Z,101579.34
2022-07-27T08:53:12.553Z,101573.84
2022-07-27T08:55:41.785Z,101567.16
2022-07-27T08:58:10.182Z,101590.47
2022-07-27T09:00:40.489Z,101618.13
2022-07-27T09:03:07.607Z,101631.38
2022-07-27T09:05:42.831Z,101618.94
2022-07-27T09:08:16.636Z,101634.53
2022-07-27T09:10:43.861Z,101643.44
2022-07-27T09:13:19.645Z,101656.63
2022-07-27T09:18:39.766Z,101600.44
2022-07-27T09:21:21.558Z,101608.53
2022-07-27T09:24:36.630Z,101653.00
2022-07-27T09:27:05.666Z,101627.66
2022-07-27T09:29:36.351Z,101612.19
2022-07-27T09:32:14.828Z,101564.66
2022-07-27T09:34:41.743Z,101572.59
2022-07-27T09:37:10.076Z,101570.75
2022-07-27T09:39:36.856Z,101594.78
2022-07-27T09:42:03.699Z,101626.94
2022-07-27T09:44:43.406Z,101649.03
2022-07-27T09:47:28.944Z,101674.03
2022-07-27T09:50:21.111Z,101671.34
2022-07-27T09:52:47.796Z,101677.53
2022-07-27T09:55:14.692Z,101679.16
2022-07-27T09:57:56.679Z,101673.41
2022-07-27T10:00:24.413Z,101651.41
2022-07-27T10:02:52.688Z,101668.34
2022-07-27T10:05:21.714Z,101612.50
2022-07-27T10:07:49.916Z,101603.69
2022-07-27T10:10:17.390Z,101592.00
2022-07-27T10:12:46.823Z,101600.34
2022-07-27T10:15:14.952Z,101624.69
2022-07-27T10:17:44.132Z,101592.66
2022-07-27T10:20:13.993Z,101597.25
2022-07-27T10:22:52.206Z,101617.44
2022-07-27T10:25:19.797Z,101623.03
2022-07-27T10:27:49.261Z,101621.44
2022-07-27T10:30:27.677Z,101614.91
2022-07-27T10:32:54.606Z,101588.47
2022-07-27T10:35:36.593Z,101578.66
2022-07-27T10:38:15.361Z,101576.88
2022-07-27T10:40:43.669Z,101549.63
2022-07-27T10:43:21.876Z,101578.53
2022-07-27T10:46:01.815Z,101596.53
2022-07-27T10:48:47.762Z,101573.94
2022-07-27T10:51:17.043Z,101586.00
2022-07-27T10:56:46.655Z,101623.34
2022-07-27T10:59:13.783Z,101659.69
2022-07-27T11:01:57.169Z,101607.97
2022-07-27T11:04:24.769Z,101618.69
2022-07-27T11:07:23.687Z,101596.88
2022-07-27T11:12:31.594Z,101617.81
2022-07-27T11:14:58.892Z,101573.22
2022-07-27T11:20:14.713Z,101584.34
2022-07-27T11:25:29.217Z,101600.38
2022-07-27T11:27:55.981Z,101615.41
2022-07-27T11:30:25.279Z,101551.88
2022-07-27T11:32:52.282Z,101569.81
2022-07-27T11:35:20.413Z,101590.38
2022-07-27T11:38:06.038Z,101549.53
2022-07-27T11:43:45.090Z,101515.41
2022-07-27T11:46:17.031Z,101549.31
2022-07-27T11:49:17.725Z,101558.88
2022-07-27T11:51:47.170Z,101535.38
2022-07-27T11:54:22.256Z,101562.94
2022-07-27T11:56:55.076Z,101556.09
2022-07-27T11:59:30.210Z,101538.44
2022-07-27T12:02:07.158Z,101561.78
2022-07-27T12:04:39.333Z,101580.28
2022-07-27T12:07:16.723Z,101548.28
2022-07-27T12:09:45.690Z,101528.78
2022-07-27T12:12:21.435Z,101507.06
2022-07-27T12:14:51.095Z,101500.34
2022-07-27T12:17:31.637Z,101540.19
2022-07-27T12:20:00.651Z,101583.78
2022-07-27T12:22:41.018Z,101641.72
2022-07-27T12:25:16.396Z,101628.63
2022-07-27T12:27:56.566Z,101663.72
2022-07-27T12:30:32.317Z,101699.69
2022-07-27T12:32:59.423Z,101700.63
2022-07-27T12:35:37.245Z,101705.16
2022-07-27T12:38:08.695Z,101700.06
2022-07-27T12:40:46.753Z,101718.72
2022-07-27T12:43:17.416Z,101730.03
2022-07-27T12:45:44.619Z,101737.16
2022-07-27T12:48:25.511Z,101733.81
2022-07-27T12:51:03.980Z,101688.34
2022-07-27T12:53:32.600Z,101682.88
2022-07-27T12:56:03.657Z,101658.59
2022-07-27T12:58:30.621Z,101605.78
2022-07-27T13:00:57.412Z,101604.34
2022-07-27T13:03:24.321Z,101641.72
2022-07-27T13:05:51.162Z,101567.56
2022-07-27T13:08:17.859Z,101538.97
2022-07-27T13:10:44.926Z,101602.31
2022-07-27T13:13:11.830Z,101584.19
2022-07-27T13:15:38.569Z,101596.84
2022-07-27T13:18:05.412Z,101640.53
2022-07-27T13:20:32.781Z,101641.41
2022-07-27T13:22:59.538Z,101588.19
2022-07-27T13:25:26.462Z,101625.69
2022-07-27T13:27:53.263Z,101673.41
2022-07-27T13:30:20.088Z,101673.00
2022-07-27T13:32:48.065Z,101709.50
2022-07-27T13:35:17.033Z,101718.09
2022-07-27T13:37:45.018Z,101719.03
2022-07-27T13:40:12.527Z,101743.78
2022-07-27T13:42:39.300Z,101749.19
2022-07-27T13:45:10.472Z,101722.84
2022-07-27T13:47:39.281Z,101726.22
2022-07-27T13:50:12.107Z,101690.47
2022-07-27T13:52:44.502Z,101643.47
2022-07-27T13:55:11.314Z,101646.66
2022-07-27T13:57:38.095Z,101633.09
2022-07-27T14:00:05.503Z,101671.00
2022-07-27T14:02:32.407Z,101679.94
2022-07-27T14:04:59.233Z,101684.81
2022-07-27T14:07:28.167Z,101717.19
2022-07-27T14:10:14.331Z,101734.53
2022-07-27T14:12:41.126Z,101753.84
2022-07-27T14:15:08.221Z,101766.22
2022-07-27T14:17:35.231Z,101782.22
2022-07-27T14:20:02.020Z,101784.63
2022-07-27T14:22:28.792Z,101784.88
2022-07-27T14:24:55.497Z,101776.81
2022-07-27T14:27:22.226Z,101777.28
2022-07-27T14:29:48.964Z,101801.63
2022-07-27T14:32:15.713Z,101791.97
2022-07-27T14:34:44.338Z,101781.31
2022-07-27T14:37:11.157Z,101763.66
2022-07-27T14:39:39.295Z,101760.31
2022-07-27T14:42:06.374Z,101770.03
2022-07-27T14:44:35.017Z,101769.50
2022-07-27T14:47:02.955Z,101783.38
2022-07-27T14:49:29.756Z,101769.94
2022-07-27T14:51:56.848Z,101778.16
2022-07-27T14:54:23.633Z,101755.44
2022-07-27T14:56:50.371Z,101767.78
2022-07-27T14:59:17.322Z,101749.63
2022-07-27T15:01:44.293Z,101772.50
2022-07-27T15:04:11.163Z,101768.34
2022-07-27T15:06:39.441Z,101762.13
2022-07-27T15:09:07.760Z,101735.69
2022-07-27T15:11:34.953Z,101735.34
2022-07-27T15:14:05.227Z,101705.63
2022-07-27T15:16:32.361Z,101707.47
2022-07-27T15:18:59.611Z,101709.16
2022-07-27T15:21:26.870Z,101704.72
2022-07-27T15:23:53.791Z,101706.34
2022-07-27T15:26:20.700Z,101724.44
2022-07-27T15:28:47.416Z,101712.19
2022-07-27T15:31:14.328Z,101736.47
2022-07-27T15:33:41.890Z,101741.88
2022-07-27T15:36:08.742Z,101737.22
2022-07-27T15:38:35.442Z,101727.41
2022-07-27T15:41:02.204Z,101728.59
2022-07-27T15:43:29.206Z,101723.38
2022-07-27T15:45:56.031Z,101728.66
2022-07-27T15:48:23.420Z,101718.53
2022-07-27T15:50:52.599Z,101730.28
2022-07-27T15:53:21.722Z,101730.97
2022-07-27T15:55:49.012Z,101750.22
2022-07-27T15:58:20.789Z,101770.38
2022-07-27T16:00:51.060Z,101769.50
2022-07-27T16:03:18.687Z,101775.13
2022-07-27T16:05:49.894Z,101739.94
2022-07-27T16:08:18.737Z,101717.19
2022-07-27T16:10:47.672Z,101712.25
2022-07-27T16:13:14.650Z,101692.16
2022-07-27T16:16:00.913Z,101711.50
2022-07-27T16:18:28.521Z,101733.22
2022-07-27T16:20:55.685Z,101733.75
2022-07-27T16:23:23.433Z,101720.88
2022-07-27T16:26:10.538Z,101747.91
2022-07-27T16:28:40.798Z,101754.13
2022-07-27T16:31:10.515Z,101751.19
2022-07-27T16:33:37.955Z,101758.75
2022-07-27T16:36:06.003Z,101766.44
2022-07-27T16:38:34.874Z,101759.22
2022-07-27T16:41:05.559Z,101759.06
2022-07-27T16:43:38.908Z,101767.66
2022-07-27T16:46:08.106Z,101754.03
2022-07-27T16:48:41.753Z,101766.81
2022-07-27T16:51:11.084Z,101718.13
2022-07-27T16:53:43.289Z,101725.88
2022-07-27T16:56:11.428Z,101727.78
2022-07-27T16:58:38.778Z,101751.91
2022-07-27T17:01:07.847Z,101764.63
2022-07-27T17:03:34.699Z,101777.63
2022-07-27T17:06:05.987Z,101785.13
2022-07-27T17:08:34.785Z,101781.84
2022-07-27T17:11:02.557Z,101779.88
2022-07-27T17:13:33.932Z,101781.63
2022-07-27T17:16:05.827Z,101779.13
2022-07-27T17:18:39.540Z,101770.66
2022-07-27T17:21:07.633Z,101780.16
2022-07-27T17:23:38.260Z,101794.63
2022-07-27T17:26:09.925Z,101790.38
2022-07-27T17:28:39.303Z,101797.09
2022-07-27T17:31:09.164Z,101808.72
2022-07-27T17:33:36.685Z,101797.09
2022-07-27T17:36:03.468Z,101787.13
2022-07-27T17:38:30.412Z,101794.00
2022-07-27T17:40:57.505Z,101786.28
2022-07-27T17:43:24.305Z,101792.38
2022-07-27T17:45:51.632Z,101793.63
2022-07-27T17:48:18.457Z,101797.00
2022-07-27T17:50:45.227Z,101787.28
2022-07-27T17:53:11.996Z,101801.75
2022-07-27T17:55:38.751Z,101804.09
2022-07-27T17:58:05.600Z,101775.19
2022-07-27T18:00:32.667Z,101770.72
2022-07-27T18:03:00.225Z,101775.44
2022-07-27T18:05:27.114Z,101774.94
2022-07-27T18:07:54.160Z,101775.34
2022-07-27T18:10:21.066Z,101787.41
2022-07-27T18:12:47.893Z,101788.16
2022-07-27T18:15:33.057Z,101801.63
2022-07-27T18:18:00.082Z,101793.38
2022-07-27T18:20:33.811Z,101795.25
2022-07-27T18:23:00.995Z,101800.34
2022-07-27T18:25:27.886Z,101803.59
2022-07-27T18:27:54.654Z,101804.94
2022-07-27T18:30:21.355Z,101805.59
2022-07-27T18:32:48.082Z,101803.94
2022-07-27T18:35:15.252Z,101809.56
2022-07-27T18:37:42.103Z,101822.09
2022-07-27T18:40:09.768Z,101837.78
2022-07-27T18:42:38.371Z,101841.66
2022-07-27T18:45:09.884Z,101854.44
2022-07-27T18:47:37.564Z,101855.19
2022-07-27T18:50:06.135Z,101865.41
2022-07-27T18:52:33.501Z,101868.25
2022-07-27T18:55:00.403Z,101859.66
2022-07-27T18:57:27.782Z,101863.13
2022-07-27T18:59:54.528Z,101844.53
2022-07-27T19:02:23.204Z,101853.91
2022-07-27T19:04:54.055Z,101858.97
2022-07-27T19:07:22.158Z,101866.09
2022-07-27T19:09:51.016Z,101861.69
2022-07-27T19:12:19.966Z,101859.19
2022-07-27T19:14:50.257Z,101851.22
2022-07-27T19:17:19.058Z,101856.44
2022-07-27T19:19:46.360Z,101849.59
2022-07-27T19:22:13.610Z,101846.22
2022-07-27T19:24:40.584Z,101856.41
2022-07-27T19:27:07.342Z,101854.78
2022-07-27T19:29:34.268Z,101858.53
2022-07-27T19:32:01.104Z,101869.25
2022-07-27T19:34:27.902Z,101868.16
2022-07-27T19:36:54.575Z,101875.16
2022-07-27T19:39:21.316Z,101887.47
2022-07-27T19:41:48.005Z,101892.81
2022-07-27T19:44:19.060Z,101902.91
2022-07-27T19:46:48.897Z,101906.84
2022-07-27T19:49:18.274Z,101906.19
2022-07-27T19:51:45.465Z,101907.72
2022-07-27T19:54:12.295Z,101906.09
2022-07-27T19:56:39.130Z,101916.06
2022-07-27T19:59:06.617Z,101910.59
2022-07-27T20:01:33.919Z,101906.13
2022-07-27T20:04:00.909Z,101908.00
2022-07-27T20:06:27.653Z,101912.03
2022-07-27T20:08:59.505Z,101905.59
2022-07-27T20:11:28.332Z,101894.78
2022-07-27T20:13:55.115Z,101875.84
2022-07-27T20:16:21.935Z,101888.41
2022-07-27T20:18:48.711Z,101882.19
2022-07-27T20:21:22.836Z,101886.66
2022-07-27T20:23:52.058Z,101881.44
2022-07-27T20:26:19.357Z,101886.03
2022-07-27T20:28:46.070Z,101883.53
2022-07-27T20:31:13.232Z,101881.44
2022-07-27T20:33:53.631Z,101883.31
2022-07-27T20:36:27.189Z,101891.06
2022-07-27T20:38:53.985Z,101899.06
2022-07-27T20:41:20.707Z,101904.53
2022-07-27T20:43:47.543Z,101901.69
2022-07-27T20:46:15.742Z,101915.47
2022-07-27T20:48:42.711Z,101921.19
2022-07-27T20:51:09.931Z,101925.56
2022-07-27T20:53:36.746Z,101925.75
2022-07-27T20:56:03.684Z,101925.94
2022-07-27T20:58:31.626Z,101927.53
2022-07-27T21:00:59.883Z,101930.47
2022-07-27T21:03:27.507Z,101926.19
2022-07-27T21:05:54.976Z,101928.69
2022-07-27T21:08:22.394Z,101926.63
2022-07-27T21:10:49.704Z,101937.78
2022-07-27T21:13:17.731Z,101940.00
2022-07-27T21:15:44.836Z,101946.00
2022-07-27T21:18:12.265Z,101926.97
2022-07-27T21:20:39.827Z,101911.09
2022-07-27T21:23:28.497Z,101899.25
2022-07-27T21:25:56.066Z,101898.97
2022-07-27T21:28:25.420Z,101902.91
2022-07-27T21:30:52.547Z,101916.25
2022-07-27T21:33:20.456Z,101919.66
2022-07-27T21:35:47.629Z,101932.56
2022-07-27T21:38:15.303Z,101940.53
2022-07-27T21:40:42.461Z,101953.13
2022-07-27T21:43:09.655Z,101961.56
2022-07-27T21:45:36.910Z,101959.81
2022-07-27T21:48:04.357Z,101968.22
2022-07-27T21:50:35.442Z,101969.28
2022-07-27T21:53:02.532Z,101973.69
2022-07-27T21:55:29.421Z,101973.34
2022-07-27T21:57:56.174Z,101970.53
2022-07-27T22:00:25.486Z,101969.75
2022-07-27T22:02:52.611Z,101965.28
2022-07-27T22:05:19.704Z,101969.53
2022-07-27T22:07:46.731Z,101966.03
2022-07-27T22:10:13.613Z,101968.66
2022-07-27T22:12:40.617Z,101969.97
2022-07-27T22:15:08.335Z,101964.94
2022-07-27T22:17:35.070Z,101968.88
2022-07-27T22:20:12.872Z,101967.22
2022-07-27T22:22:39.998Z,101973.56
2022-07-27T22:25:07.570Z,101978.25
2022-07-27T22:27:34.930Z,101977.81
2022-07-27T22:30:02.778Z,101979.00
2022-07-27T22:32:29.569Z,101989.59
2022-07-27T22:34:56.287Z,101983.66
2022-07-27T22:37:23.077Z,101991.97
2022-07-27T22:39:51.286Z,101990.50
2022-07-27T22:42:18.108Z,101993.66
2022-07-27T22:44:44.838Z,101990.38
2022-07-27T22:47:12.045Z,101984.13
2022-07-27T22:49:38.993Z,101985.50
2022-07-27T22:52:06.702Z,101985.03
2022-07-27T22:54:38.316Z,101989.81
2022-07-27T22:57:06.287Z,101978.53
2022-07-27T22:59:34.133Z,101987.81
2022-07-27T23:02:01.383Z,101989.88
2022-07-27T23:04:28.470Z,102000.22
2022-07-27T23:06:55.511Z,101988.53
2022-07-27T23:09:23.228Z,101985.09
2022-07-27T23:11:51.133Z,101985.22
2022-07-27T23:14:18.822Z,101984.47
2022-07-27T23:16:46.079Z,101990.00
2022-07-27T23:19:13.148Z,101991.94
2022-07-27T23:21:41.896Z,101989.53
2022-07-27T23:24:11.146Z,101985.22
2022-07-27T23:26:38.730Z,101988.47
2022-07-27T23:29:05.508Z,101981.75
2022-07-27T23:31:32.479Z,101985.78
2022-07-27T23:33:59.889Z,101984.59
2022-07-27T23:36:26.762Z,101979.34
2022-07-27T23:38:53.929Z,101975.63
2022-07-27T23:41:20.809Z,101979.91
2022-07-27T23:43:47.486Z,101973.38
2022-07-27T23:46:14.582Z,101973.25
2022-07-27T23:48:41.525Z,101975.03
2022-07-27T23:51:09.285Z,101967.78
2022-07-27T23:53:36.100Z,101975.25
2022-07-27T23:56:02.983Z,101977.59
2022-07-27T23:58:29.863Z,101973.81
